createdAt,value
2019-03-19T00:00:31.979Z,3.06
2019-03-19T00:03:01.034Z,2.99
2019-03-19T00:05:30.053Z,2.94
2019-03-19T00:07:59.078Z,3.02
2019-03-19T00:10:28.193Z,2.96
2019-03-19T00:12:57.201Z,2.91
2019-03-19T00:15:26.576Z,2.89
2019-03-19T00:17:55.616Z,2.91
2019-03-19T00:20:24.635Z,2.95
2019-03-19T00:22:53.971Z,2.90
2019-03-19T00:25:29.823Z,2.90
2019-03-19T00:27:53.745Z,2.90
2019-03-19T00:30:22.782Z,2.87
2019-03-19T00:32:51.849Z,2.91
2019-03-19T00:35:20.857Z,2.87
2019-03-19T00:37:50.613Z,2.86
2019-03-19T00:40:19.599Z,2.83
2019-03-19T00:42:48.610Z,2.80
2019-03-19T00:45:17.663Z,2.71
2019-03-19T00:47:47.000Z,2.71
2019-03-19T00:50:16.046Z,2.76
2019-03-19T00:52:45.047Z,2.69
2019-03-19T00:55:14.573Z,2.82
2019-03-19T00:57:43.615Z,2.86
2019-03-19T01:00:12.777Z,2.83
2019-03-19T01:02:41.786Z,2.75
2019-03-19T01:05:10.881Z,2.67
2019-03-19T01:07:40.263Z,2.70
2019-03-19T01:10:10.485Z,2.75
2019-03-19T01:12:39.878Z,2.72
2019-03-19T01:15:09.884Z,2.65
2019-03-19T01:17:38.931Z,2.68
2019-03-19T01:20:09.610Z,2.63
2019-03-19T01:22:38.753Z,2.55
2019-03-19T01:25:08.639Z,2.52
2019-03-19T01:27:38.000Z,2.40
2019-03-19T01:30:07.838Z,2.41
2019-03-19T01:32:36.895Z,2.28
2019-03-19T01:35:06.229Z,2.30
2019-03-19T01:37:35.564Z,2.29
2019-03-19T01:40:05.674Z,2.28
2019-03-19T01:42:34.688Z,2.38
2019-03-19T01:45:03.949Z,2.45
2019-03-19T01:47:32.944Z,2.49
2019-03-19T01:50:01.954Z,2.50
2019-03-19T01:52:30.995Z,2.49
2019-03-19T01:55:00.002Z,2.50
2019-03-19T01:57:29.392Z,2.41
2019-03-19T01:59:58.411Z,2.42
2019-03-19T02:02:27.764Z,2.40
2019-03-19T02:04:57.152Z,2.40
2019-03-19T02:07:26.170Z,2.33
2019-03-19T02:09:55.199Z,2.36
2019-03-19T02:12:24.221Z,2.33
2019-03-19T02:14:53.282Z,2.33
2019-03-19T02:17:22.643Z,2.32
2019-03-19T02:19:51.949Z,2.29
2019-03-19T02:22:21.344Z,2.28
2019-03-19T02:24:50.374Z,2.22
2019-03-19T02:27:19.799Z,2.19
2019-03-19T02:29:49.211Z,2.20
2019-03-19T02:32:18.938Z,2.28
2019-03-19T02:34:47.942Z,2.34
2019-03-19T02:37:17.293Z,2.24
2019-03-19T02:39:46.357Z,2.10
2019-03-19T02:42:15.354Z,2.06
2019-03-19T02:44:44.349Z,2.02
2019-03-19T02:47:13.665Z,2.15
2019-03-19T02:49:43.003Z,2.10
2019-03-19T02:52:12.294Z,2.13
2019-03-19T02:54:41.600Z,2.08
2019-03-19T02:57:10.592Z,2.09
2019-03-19T02:59:39.612Z,2.15
2019-03-19T03:02:08.621Z,2.18
2019-03-19T03:04:37.644Z,2.18
2019-03-19T03:07:06.660Z,2.15
2019-03-19T03:09:35.669Z,2.15
2019-03-19T03:12:05.365Z,2.16
2019-03-19T03:14:34.435Z,2.14
2019-03-19T03:17:03.447Z,2.12
2019-03-19T03:19:32.832Z,2.10
2019-03-19T03:22:01.895Z,2.17
2019-03-19T03:24:31.233Z,2.20
2019-03-19T03:27:02.158Z,2.22
2019-03-19T03:29:30.985Z,2.22
2019-03-19T03:32:00.502Z,2.19
2019-03-19T03:34:29.527Z,2.20
2019-03-19T03:36:58.484Z,2.14
2019-03-19T03:39:27.745Z,2.09
2019-03-19T03:41:56.778Z,2.13
2019-03-19T03:44:25.774Z,2.09
2019-03-19T03:46:55.206Z,2.07
2019-03-19T03:49:24.223Z,2.09
2019-03-19T03:51:53.554Z,2.09
2019-03-19T03:54:22.569Z,2.09
2019-03-19T03:57:01.891Z,2.04
2019-03-19T03:59:22.785Z,2.00
2019-03-19T04:01:51.817Z,2.00
2019-03-19T04:04:20.812Z,2.01
2019-03-19T04:06:49.824Z,1.99
2019-03-19T04:09:19.194Z,1.97
2019-03-19T04:11:48.653Z,1.92
2019-03-19T04:14:17.670Z,1.96
2019-03-19T04:16:46.710Z,1.97
2019-03-19T04:19:15.686Z,1.95
2019-03-19T04:21:45.081Z,1.93
2019-03-19T04:24:14.093Z,1.83
2019-03-19T04:26:43.582Z,1.86
2019-03-19T04:29:12.608Z,1.80
2019-03-19T04:31:41.596Z,1.68
2019-03-19T04:34:10.652Z,1.71
2019-03-19T04:36:39.941Z,1.70
2019-03-19T04:39:09.355Z,1.70
2019-03-19T04:41:38.813Z,1.73
2019-03-19T04:44:08.504Z,1.72
2019-03-19T04:46:37.869Z,1.70
2019-03-19T04:49:06.898Z,1.63
2019-03-19T04:51:35.943Z,1.50
2019-03-19T04:54:05.342Z,1.43
2019-03-19T04:56:34.970Z,1.47
2019-03-19T04:59:04.369Z,1.39
2019-03-19T05:01:33.370Z,1.43
2019-03-19T05:04:02.402Z,1.46
2019-03-19T05:06:31.450Z,1.48
2019-03-19T05:09:00.501Z,1.45
2019-03-19T05:11:29.528Z,1.40
2019-03-19T05:13:58.554Z,1.39
2019-03-19T05:16:27.596Z,1.36
2019-03-19T05:18:56.651Z,1.31
2019-03-19T05:21:25.658Z,1.34
2019-03-19T05:23:54.711Z,1.32
2019-03-19T05:26:24.018Z,1.22
2019-03-19T05:28:53.054Z,1.13
2019-03-19T05:31:22.426Z,1.16
2019-03-19T05:33:51.438Z,1.20
2019-03-19T05:36:20.494Z,1.23
2019-03-19T05:38:49.540Z,1.22
2019-03-19T05:41:18.563Z,1.19
2019-03-19T05:43:47.606Z,1.16
2019-03-19T05:46:16.642Z,1.12
2019-03-19T05:48:45.771Z,1.12
2019-03-19T05:51:15.100Z,1.12
2019-03-19T05:53:44.104Z,1.16
2019-03-19T05:56:13.479Z,1.17
2019-03-19T05:58:42.492Z,1.18
2019-03-19T06:01:11.527Z,1.19
2019-03-19T06:03:40.532Z,1.16
2019-03-19T06:06:09.581Z,1.06
2019-03-19T06:08:38.606Z,1.09
2019-03-19T06:11:07.651Z,1.11
2019-03-19T06:13:36.725Z,1.17
2019-03-19T06:16:06.096Z,1.18
2019-03-19T06:18:35.740Z,1.20
2019-03-19T06:21:05.187Z,1.26
2019-03-19T06:23:34.266Z,1.42
2019-03-19T06:26:03.306Z,1.46
2019-03-19T06:28:32.335Z,1.55
2019-03-19T06:31:01.404Z,1.57
2019-03-19T06:33:30.434Z,1.63
2019-03-19T06:35:59.492Z,1.79
2019-03-19T06:38:28.521Z,2.06
2019-03-19T06:40:57.981Z,2.10
2019-03-19T06:43:27.026Z,2.20
2019-03-19T06:45:56.348Z,2.35
2019-03-19T06:48:26.174Z,2.34
2019-03-19T06:50:55.248Z,2.37
2019-03-19T06:53:24.723Z,2.38
2019-03-19T06:55:53.749Z,2.36
2019-03-19T06:58:23.192Z,2.42
2019-03-19T07:00:52.560Z,2.59
2019-03-19T07:03:21.615Z,2.57
2019-03-19T07:05:50.952Z,2.64
2019-03-19T07:08:19.981Z,2.44
2019-03-19T07:10:49.008Z,2.40
2019-03-19T07:13:18.056Z,2.40
2019-03-19T07:15:47.072Z,2.52
2019-03-19T07:18:17.136Z,2.74
2019-03-19T07:20:46.185Z,2.79
2019-03-19T07:23:15.856Z,2.93
2019-03-19T07:25:45.206Z,3.10
2019-03-19T07:28:21.976Z,3.22
2019-03-19T07:30:45.642Z,3.39
2019-03-19T07:33:15.012Z,3.48
2019-03-19T07:35:44.354Z,3.54
2019-03-19T07:38:13.736Z,3.65
2019-03-19T07:40:43.134Z,3.71
2019-03-19T07:43:12.150Z,3.88
2019-03-19T07:45:41.186Z,3.86
2019-03-19T07:48:10.186Z,4.11
2019-03-19T07:50:39.244Z,4.11
2019-03-19T07:53:08.617Z,4.31
2019-03-19T07:55:37.652Z,4.24
2019-03-19T07:58:06.988Z,4.45
2019-03-19T08:00:37.358Z,4.60
2019-03-19T08:03:15.613Z,4.78
2019-03-19T08:05:37.475Z,4.90
2019-03-19T08:08:06.472Z,4.92
2019-03-19T08:10:35.504Z,5.18
2019-03-19T08:13:04.535Z,5.19
2019-03-19T08:15:33.597Z,5.46
2019-03-19T08:18:02.994Z,5.48
2019-03-19T08:20:32.356Z,5.88
2019-03-19T08:23:01.743Z,6.14
2019-03-19T08:25:31.410Z,6.09
2019-03-19T08:28:00.808Z,5.91
2019-03-19T08:30:30.200Z,6.00
2019-03-19T08:32:59.233Z,6.18
2019-03-19T08:35:28.342Z,6.35
2019-03-19T08:37:57.360Z,6.24
2019-03-19T08:40:26.669Z,6.75
2019-03-19T08:42:58.108Z,7.00
2019-03-19T08:45:27.116Z,7.28
2019-03-19T08:47:56.181Z,7.35
2019-03-19T08:50:25.445Z,7.53
2019-03-19T08:52:55.579Z,8.02
2019-03-19T08:55:24.783Z,10.44
2019-03-19T08:57:53.795Z,10.44
2019-03-19T09:00:22.802Z,13.10
2019-03-19T09:02:52.801Z,14.89
2019-03-19T09:05:25.219Z,16.35
2019-03-19T09:07:54.299Z,16.36
2019-03-19T09:10:23.710Z,16.58
2019-03-19T09:12:52.709Z,17.17
2019-03-19T09:15:22.146Z,16.81
2019-03-19T09:17:51.156Z,18.31
2019-03-19T09:20:20.166Z,18.77
2019-03-19T09:22:49.195Z,19.85
2019-03-19T09:25:18.502Z,19.43
2019-03-19T09:27:47.546Z,19.92
2019-03-19T09:30:16.956Z,19.28
2019-03-19T09:32:45.994Z,20.04
2019-03-19T09:35:15.426Z,20.48
2019-03-19T09:37:57.231Z,21.20
2019-03-19T09:40:15.814Z,20.61
2019-03-19T09:42:45.232Z,20.61
2019-03-19T09:45:14.750Z,21.89
2019-03-19T09:47:43.747Z,21.63
2019-03-19T09:50:13.817Z,22.37
2019-03-19T09:52:43.212Z,21.32
2019-03-19T09:55:12.643Z,20.77
2019-03-19T09:57:41.957Z,22.05
2019-03-19T10:00:13.834Z,20.97
2019-03-19T10:02:42.843Z,19.57
2019-03-19T10:05:11.865Z,19.41
2019-03-19T10:07:41.264Z,18.81
2019-03-19T10:10:11.744Z,18.33
2019-03-19T10:12:40.768Z,17.86
2019-03-19T10:15:10.149Z,16.90
2019-03-19T10:17:39.558Z,16.50
2019-03-19T10:20:11.043Z,16.21
2019-03-19T10:22:40.062Z,16.70
2019-03-19T10:25:09.945Z,17.01
2019-03-19T10:27:39.352Z,16.91
2019-03-19T10:30:12.438Z,16.76
2019-03-19T10:32:41.456Z,16.18
2019-03-19T10:35:11.256Z,14.86
2019-03-19T10:37:40.291Z,14.69
2019-03-19T10:40:09.818Z,14.43
2019-03-19T10:42:38.855Z,15.19
2019-03-19T10:45:09.096Z,17.23
2019-03-19T10:47:38.110Z,17.96
2019-03-19T10:50:10.452Z,18.61
2019-03-19T10:52:39.791Z,18.28
2019-03-19T10:55:08.785Z,18.51
2019-03-19T10:57:37.793Z,20.15
2019-03-19T11:00:11.645Z,20.38
2019-03-19T11:02:41.034Z,20.50
2019-03-19T11:05:11.070Z,18.62
2019-03-19T11:07:40.101Z,17.06
2019-03-19T11:10:09.414Z,15.85
2019-03-19T11:12:38.461Z,14.62
2019-03-19T11:15:08.878Z,15.12
2019-03-19T11:17:37.937Z,15.05
2019-03-19T11:20:07.914Z,14.39
2019-03-19T11:22:37.254Z,13.81
2019-03-19T11:25:08.444Z,14.08
2019-03-19T11:27:37.497Z,15.96
2019-03-19T11:30:09.535Z,18.29
2019-03-19T11:32:39.231Z,17.71
2019-03-19T11:35:09.312Z,18.46
2019-03-19T11:37:38.684Z,16.85
2019-03-19T11:40:07.923Z,17.00
2019-03-19T11:42:36.948Z,16.97
2019-03-19T11:45:07.049Z,17.37
2019-03-19T11:47:36.069Z,16.42
2019-03-19T11:50:06.628Z,15.96
2019-03-19T11:52:35.907Z,15.80
2019-03-19T11:55:06.289Z,16.07
2019-03-19T11:57:35.704Z,16.80
2019-03-19T12:00:11.065Z,16.55
2019-03-19T12:02:37.715Z,16.02
2019-03-19T12:05:07.138Z,15.80
2019-03-19T12:07:36.519Z,15.21
2019-03-19T12:10:06.099Z,14.88
2019-03-19T12:12:35.223Z,14.80
2019-03-19T12:15:04.769Z,15.44
2019-03-19T12:17:34.525Z,15.23
2019-03-19T12:20:03.605Z,14.85
2019-03-19T12:22:32.643Z,14.62
2019-03-19T12:25:01.627Z,14.40
2019-03-19T12:27:30.927Z,14.26
2019-03-19T12:29:59.950Z,14.21
2019-03-19T12:32:28.985Z,13.72
2019-03-19T12:34:57.973Z,13.79
2019-03-19T12:37:27.043Z,13.85
2019-03-19T12:39:56.310Z,14.08
2019-03-19T12:42:25.334Z,14.01
2019-03-19T12:44:54.703Z,13.77
2019-03-19T12:47:24.114Z,13.64
2019-03-19T12:49:53.140Z,13.36
2019-03-19T12:52:22.259Z,13.11
2019-03-19T12:54:51.685Z,13.06
2019-03-19T12:57:20.699Z,13.04
2019-03-19T12:59:49.987Z,13.34
2019-03-19T13:02:19.283Z,15.64
2019-03-19T13:04:48.341Z,17.54
2019-03-19T13:07:17.351Z,16.88
2019-03-19T13:09:46.352Z,15.92
2019-03-19T13:12:15.617Z,15.22
2019-03-19T13:14:44.624Z,14.38
2019-03-19T13:17:13.967Z,14.15
2019-03-19T13:19:43.003Z,14.45
2019-03-19T13:22:12.646Z,16.27
2019-03-19T13:24:43.513Z,15.90
2019-03-19T13:27:12.835Z,15.85
2019-03-19T13:29:43.229Z,15.43
2019-03-19T13:32:12.823Z,14.68
2019-03-19T13:34:43.761Z,14.60
2019-03-19T13:37:13.044Z,13.73
2019-03-19T13:39:42.061Z,13.32
2019-03-19T13:42:11.689Z,13.06
2019-03-19T13:44:42.392Z,13.14
2019-03-19T13:47:11.600Z,13.26
2019-03-19T13:49:43.297Z,13.23
2019-03-19T13:52:11.914Z,13.06
2019-03-19T13:54:42.125Z,12.86
2019-03-19T13:57:11.416Z,13.18
2019-03-19T13:59:40.463Z,13.50
2019-03-19T14:02:09.520Z,13.82
2019-03-19T14:04:38.791Z,14.05
2019-03-19T14:07:08.088Z,14.03
2019-03-19T14:09:37.131Z,14.17
2019-03-19T14:12:06.160Z,14.15
2019-03-19T14:14:35.493Z,14.36
2019-03-19T14:17:06.555Z,14.32
2019-03-19T14:19:35.545Z,13.92
2019-03-19T14:22:05.480Z,13.77
2019-03-19T14:24:34.563Z,13.56
2019-03-19T14:27:03.550Z,13.61
2019-03-19T14:29:32.596Z,13.32
2019-03-19T14:32:03.924Z,13.41
2019-03-19T14:34:32.685Z,13.45
2019-03-19T14:37:01.961Z,13.09
2019-03-19T14:39:30.985Z,13.40
2019-03-19T14:42:00.300Z,13.19
2019-03-19T14:44:29.587Z,13.03
2019-03-19T14:46:58.891Z,13.15
2019-03-19T14:49:28.193Z,13.06
2019-03-19T14:51:57.238Z,13.23
2019-03-19T14:54:26.569Z,13.05
2019-03-19T14:56:55.587Z,12.86
2019-03-19T14:59:24.881Z,13.02
2019-03-19T15:01:54.174Z,13.04
2019-03-19T15:04:23.212Z,13.07
2019-03-19T15:06:52.312Z,13.14
2019-03-19T15:09:21.632Z,13.23
2019-03-19T15:11:51.181Z,13.29
2019-03-19T15:14:20.757Z,13.12
2019-03-19T15:16:49.793Z,12.87
2019-03-19T15:19:18.864Z,12.82
2019-03-19T15:21:48.129Z,12.96
2019-03-19T15:24:17.153Z,12.89
2019-03-19T15:26:46.207Z,12.96
2019-03-19T15:29:15.455Z,13.01
2019-03-19T15:31:44.559Z,13.07
2019-03-19T15:34:13.566Z,13.06
2019-03-19T15:36:42.636Z,13.08
2019-03-19T15:39:11.672Z,13.21
2019-03-19T15:41:40.690Z,13.41
2019-03-19T15:44:09.720Z,13.05
2019-03-19T15:46:38.799Z,13.39
2019-03-19T15:49:07.806Z,13.38
2019-03-19T15:51:36.908Z,13.24
2019-03-19T15:54:05.958Z,13.17
2019-03-19T15:56:35.027Z,13.13
2019-03-19T15:59:04.306Z,13.02
2019-03-19T16:01:40.279Z,13.26
2019-03-19T16:04:05.630Z,13.20
2019-03-19T16:06:34.788Z,13.17
2019-03-19T16:09:05.655Z,13.16
2019-03-19T16:11:34.688Z,13.00
2019-03-19T16:14:04.005Z,12.92
2019-03-19T16:16:33.093Z,12.80
2019-03-19T16:19:02.130Z,12.58
2019-03-19T16:21:31.450Z,12.33
2019-03-19T16:24:00.834Z,11.93
2019-03-19T16:26:29.830Z,11.79
2019-03-19T16:28:58.878Z,11.54
2019-03-19T16:31:27.921Z,11.54
2019-03-19T16:33:57.069Z,11.47
2019-03-19T16:36:26.298Z,11.29
2019-03-19T16:38:55.416Z,11.29
2019-03-19T16:41:24.744Z,11.29
2019-03-19T16:43:54.161Z,11.31
2019-03-19T16:46:23.229Z,11.22
2019-03-19T16:48:52.619Z,11.27
2019-03-19T16:51:21.674Z,11.24
2019-03-19T16:53:50.725Z,11.27
2019-03-19T16:56:20.353Z,11.26
2019-03-19T16:58:49.510Z,11.29
2019-03-19T17:01:18.567Z,11.26
2019-03-19T17:03:47.604Z,11.25
2019-03-19T17:06:17.150Z,11.22
2019-03-19T17:08:46.550Z,11.17
2019-03-19T17:11:15.610Z,11.15
2019-03-19T17:13:44.752Z,11.20
2019-03-19T17:16:14.305Z,11.22
2019-03-19T17:18:43.401Z,11.03
2019-03-19T17:21:12.725Z,10.89
2019-03-19T17:23:41.857Z,10.87
2019-03-19T17:26:10.954Z,10.72
2019-03-19T17:28:40.023Z,10.58
2019-03-19T17:31:09.434Z,10.58
2019-03-19T17:33:38.635Z,10.57
2019-03-19T17:36:07.691Z,10.54
2019-03-19T17:38:36.766Z,10.52
2019-03-19T17:41:07.315Z,10.54
2019-03-19T17:43:36.751Z,10.61
2019-03-19T17:46:05.915Z,10.63
2019-03-19T17:48:34.984Z,10.73
2019-03-19T17:51:04.330Z,10.65
2019-03-19T17:53:33.368Z,10.57
2019-03-19T17:56:02.581Z,10.49
2019-03-19T17:58:32.033Z,10.38
2019-03-19T18:01:01.414Z,10.28
2019-03-19T18:03:30.737Z,10.35
2019-03-19T18:05:59.787Z,10.49
2019-03-19T18:08:29.113Z,10.60
2019-03-19T18:10:58.570Z,10.63
2019-03-19T18:13:27.881Z,10.63
2019-03-19T18:15:56.913Z,10.62
2019-03-19T18:18:29.638Z,10.55
2019-03-19T18:20:58.659Z,10.46
2019-03-19T18:23:29.472Z,10.41
2019-03-19T18:25:59.555Z,10.35
2019-03-19T18:28:28.574Z,10.30
2019-03-19T18:30:57.910Z,10.25
2019-03-19T18:33:27.270Z,10.14
2019-03-19T18:35:56.742Z,10.24
2019-03-19T18:38:25.928Z,10.23
2019-03-19T18:40:55.292Z,10.13
2019-03-19T18:43:24.299Z,10.00
2019-03-19T18:45:53.336Z,10.06
2019-03-19T18:48:22.361Z,9.95
2019-03-19T18:50:51.422Z,9.88
2019-03-19T18:53:20.428Z,10.01
2019-03-19T18:55:49.483Z,9.95
2019-03-19T18:58:18.554Z,9.97
2019-03-19T19:00:47.607Z,9.95
2019-03-19T19:03:16.657Z,9.94
2019-03-19T19:05:45.724Z,10.00
2019-03-19T19:08:15.074Z,10.04
2019-03-19T19:10:44.845Z,9.97
2019-03-19T19:13:13.864Z,9.94
2019-03-19T19:15:43.028Z,9.85
2019-03-19T19:18:12.071Z,9.76
2019-03-19T19:20:41.119Z,9.70
2019-03-19T19:23:10.136Z,9.64
2019-03-19T19:25:39.218Z,9.57
2019-03-19T19:28:08.269Z,9.49
2019-03-19T19:30:37.674Z,9.44
2019-03-19T19:33:06.714Z,9.43
2019-03-19T19:35:35.726Z,9.41
2019-03-19T19:38:05.139Z,9.52
2019-03-19T19:40:34.181Z,9.69
2019-03-19T19:43:03.165Z,9.72
2019-03-19T19:45:32.220Z,9.59
2019-03-19T19:48:01.286Z,9.59
2019-03-19T19:50:30.382Z,9.70
2019-03-19T19:52:59.452Z,9.96
2019-03-19T19:55:28.493Z,10.05
2019-03-19T19:57:57.506Z,10.02
2019-03-19T20:00:26.538Z,10.13
2019-03-19T20:02:55.567Z,10.20
2019-03-19T20:05:24.604Z,10.03
2019-03-19T20:07:53.647Z,10.05
2019-03-19T20:10:22.711Z,10.07
2019-03-19T20:12:52.085Z,10.01
2019-03-19T20:15:21.440Z,9.90
2019-03-19T20:17:50.497Z,9.96
2019-03-19T20:20:20.247Z,9.95
2019-03-19T20:22:49.264Z,9.93
2019-03-19T20:25:18.542Z,10.01
2019-03-19T20:27:47.930Z,10.03
2019-03-19T20:30:18.388Z,10.02
2019-03-19T20:32:47.703Z,10.04
2019-03-19T20:35:17.129Z,10.08
2019-03-19T20:37:46.164Z,10.19
2019-03-19T20:40:15.193Z,10.19
2019-03-19T20:42:44.368Z,10.31
2019-03-19T20:45:14.212Z,10.18
2019-03-19T20:47:43.230Z,10.19
2019-03-19T20:50:23.983Z,10.11
2019-03-19T20:52:53.400Z,10.16
2019-03-19T20:55:22.735Z,10.12
2019-03-19T20:57:51.792Z,10.16
2019-03-19T21:00:20.800Z,10.25
2019-03-19T21:02:49.824Z,10.19
2019-03-19T21:05:19.409Z,10.09
2019-03-19T21:07:48.452Z,10.01
2019-03-19T21:10:18.518Z,9.99
2019-03-19T21:12:47.849Z,9.92
2019-03-19T21:15:18.476Z,9.88
2019-03-19T21:17:48.061Z,9.92
2019-03-19T21:20:17.414Z,9.96
2019-03-19T21:22:46.504Z,10.13
2019-03-19T21:25:15.850Z,10.00
2019-03-19T21:27:45.151Z,9.98
2019-03-19T21:30:14.721Z,9.80
2019-03-19T21:32:43.776Z,9.83
2019-03-19T21:35:13.056Z,9.69
2019-03-19T21:37:42.658Z,9.66
2019-03-19T21:40:12.681Z,9.61
2019-03-19T21:42:41.696Z,9.62
2019-03-19T21:45:11.558Z,9.54
2019-03-19T21:47:40.890Z,9.50
2019-03-19T21:50:11.708Z,9.30
2019-03-19T21:52:40.786Z,9.24
2019-03-19T21:55:10.082Z,9.27
2019-03-19T21:57:39.075Z,9.47
2019-03-19T22:00:11.056Z,9.18
2019-03-19T22:02:40.139Z,9.10
2019-03-19T22:05:09.367Z,9.15
2019-03-19T22:07:38.661Z,9.13
2019-03-19T22:10:10.020Z,9.09
2019-03-19T22:12:39.048Z,8.90
2019-03-19T22:15:12.801Z,8.70
2019-03-19T22:17:41.802Z,8.73
2019-03-19T22:20:11.442Z,8.58
2019-03-19T22:22:40.746Z,8.44
2019-03-19T22:25:10.583Z,8.36
2019-03-19T22:27:39.617Z,8.29
2019-03-19T22:30:10.883Z,8.27
2019-03-19T22:32:39.898Z,8.27
2019-03-19T22:35:09.440Z,8.28
2019-03-19T22:37:39.106Z,8.24
2019-03-19T22:40:10.029Z,8.26
2019-03-19T22:42:39.424Z,8.21
2019-03-19T22:45:10.506Z,8.09
2019-03-19T22:47:39.560Z,8.02
2019-03-19T22:50:09.734Z,8.07
2019-03-19T22:52:39.074Z,8.02
2019-03-19T22:55:08.625Z,7.93
2019-03-19T22:57:37.636Z,7.85
2019-03-19T23:00:09.209Z,8.02
2019-03-19T23:02:38.258Z,7.87
2019-03-19T23:05:08.041Z,7.95
2019-03-19T23:07:37.410Z,7.86
2019-03-19T23:10:06.681Z,7.77
2019-03-19T23:12:35.710Z,7.80
2019-03-19T23:15:05.684Z,7.67
2019-03-19T23:17:34.773Z,7.55
2019-03-19T23:20:03.822Z,7.50
2019-03-19T23:22:32.906Z,7.38
2019-03-19T23:25:01.934Z,7.32
2019-03-19T23:27:31.396Z,7.27
2019-03-19T23:30:00.460Z,7.22
2019-03-19T23:32:29.758Z,7.22
2019-03-19T23:34:58.800Z,7.16
2019-03-19T23:37:27.799Z,7.07
2019-03-19T23:39:56.858Z,7.14
2019-03-19T23:42:25.862Z,7.09
2019-03-19T23:44:54.939Z,7.09
2019-03-19T23:47:24.276Z,7.06
2019-03-19T23:49:53.342Z,7.12
2019-03-19T23:52:22.780Z,7.10
2019-03-19T23:54:51.802Z,7.14
2019-03-19T23:57:20.840Z,7.21
2019-03-19T23:59:49.864Z,7.16
